Time;durP1;ratioP1;P1;durP2;ratioP2;P2;SDS_P1;SDS_P2;PMS_P1;PMS_P2;Temp;Humidity;BMP_temperature;BMP_pressure;BME280_temperature;BME280_humidity;BME280_pressure;Samples;Min_cycle;Max_cycle;Signal;HPM_P1;HPM_P2
2023/01/19 00:01:18;;;;;;;10.70;6.18;;;3.00;99.90;;;;;;5015040;28;20464;-69
2023/01/19 00:03:44;;;;;;;9.02;6.22;;;2.50;99.90;;;;;;5014788;28;20088;-69
2023/01/19 00:06:11;;;;;;;7.07;5.38;;;3.10;99.90;;;;;;5014782;28;20133;-69
2023/01/19 00:08:36;;;;;;;9.52;5.22;;;3.20;99.90;;;;;;5013668;28;20092;-69
2023/01/19 00:11:02;;;;;;;7.43;5.15;;;2.80;99.90;;;;;;5015407;28;20058;-70
2023/01/19 00:13:28;;;;;;;5.50;4.35;;;2.90;99.90;;;;;;5015298;28;20108;-68
2023/01/19 00:15:54;;;;;;;10.50;5.57;;;3.00;99.90;;;;;;5015527;28;20090;-69
2023/01/19 00:18:19;;;;;;;7.45;4.57;;;2.80;99.90;;;;;;5014699;28;20050;-69
2023/01/19 00:20:45;;;;;;;6.93;4.30;;;2.90;99.90;;;;;;5015188;28;20042;-69
2023/01/19 00:23:12;;;;;;;10.50;5.90;;;2.90;99.90;;;;;;5014564;28;20137;-68
2023/01/19 00:25:42;;;;;;;7.80;5.40;;;2.80;99.90;;;;;;5014137;28;20442;-70
2023/01/19 00:28:13;;;;;;;6.80;4.68;;;3.80;99.90;;;;;;5014546;28;20108;-69
2023/01/19 00:30:40;;;;;;;6.32;4.85;;;2.90;99.90;;;;;;5014480;28;20038;-68
2023/01/19 00:33:06;;;;;;;6.18;4.40;;;2.80;99.90;;;;;;5014862;28;20407;-69
2023/01/19 00:35:33;;;;;;;6.45;4.40;;;3.20;99.90;;;;;;5013082;28;20395;-69
2023/01/19 00:38:02;;;;;;;6.82;4.43;;;2.80;99.90;;;;;;5013168;28;20518;-69
2023/01/19 00:40:27;;;;;;;5.22;3.42;;;3.10;99.90;;;;;;5013378;28;20045;-69
2023/01/19 00:42:53;;;;;;;6.47;3.83;;;3.20;99.90;;;;;;5014277;28;20364;-69
2023/01/19 00:45:22;;;;;;;6.32;3.95;;;3.20;99.90;;;;;;5013116;28;20372;-69
2023/01/19 00:47:53;;;;;;;5.13;3.63;;;2.90;99.90;;;;;;5013228;28;20054;-69
2023/01/19 00:50:19;;;;;;;6.13;3.53;;;3.50;99.90;;;;;;5014202;28;20483;-69
2023/01/19 00:52:45;;;;;;;4.53;3.33;;;3.20;99.90;;;;;;5014172;28;20056;-70
2023/01/19 00:55:14;;;;;;;6.38;3.15;;;3.30;99.90;;;;;;4997576;28;20082;-69
2023/01/19 00:57:40;;;;;;;5.40;2.90;;;3.70;99.90;;;;;;5014084;28;20052;-69
2023/01/19 01:00:10;;;;;;;6.93;2.70;;;3.50;99.90;;;;;;5014028;28;20053;-69
2023/01/19 01:02:38;;;;;;;4.63;2.65;;;2.90;99.90;;;;;;4996922;28;20050;-69
2023/01/19 01:05:05;;;;;;;3.42;2.55;;;2.90;99.90;;;;;;5014433;28;20045;-69
2023/01/19 01:07:39;;;;;;;5.68;2.72;;;3.10;99.90;;;;;;5013959;28;20133;-69
2023/01/19 01:10:14;;;;;;;8.80;2.50;;;3.10;99.90;;;;;;5013620;28;20504;-69
2023/01/19 01:12:41;;;;;;;5.47;1.88;;;3.00;99.90;;;;;;5013918;28;20096;-69
2023/01/19 01:15:09;;;;;;;3.65;1.77;;;3.80;99.90;;;;;;5012874;28;20061;-69
2023/01/19 01:17:35;;;;;;;2.33;1.38;;;3.00;99.90;;;;;;5013826;28;20038;-69
2023/01/19 01:20:01;;;;;;;2.72;1.00;;;3.10;99.90;;;;;;5013856;28;20042;-69
2023/01/19 01:22:26;;;;;;;2.83;1.08;;;3.30;99.90;;;;;;5014578;28;20038;-69
2023/01/19 01:24:52;;;;;;;2.65;0.98;;;3.30;99.90;;;;;;5012191;28;20499;-69
2023/01/19 01:27:18;;;;;;;2.67;1.20;;;3.30;99.90;;;;;;5012586;28;20172;-69
2023/01/19 01:29:46;;;;;;;2.95;1.23;;;3.30;99.90;;;;;;5012723;28;20499;-69
2023/01/19 01:32:15;;;;;;;2.05;1.00;;;3.40;99.90;;;;;;5013682;28;20135;-68
2023/01/19 01:34:41;;;;;;;1.98;0.80;;;3.20;99.90;;;;;;5014158;28;20045;-68
2023/01/19 01:37:08;;;;;;;0.95;0.70;;;4.00;99.90;;;;;;5013323;28;20388;-69
2023/01/19 01:39:35;;;;;;;1.60;0.80;;;3.30;99.90;;;;;;5012622;28;20050;-68
2023/01/19 01:42:00;;;;;;;1.00;0.70;;;3.80;99.90;;;;;;5014270;28;20054;-69
2023/01/19 01:45:14;;;;;;;1.48;0.80;;;3.00;99.90;;;;;;5014304;28;20386;-68
2023/01/19 01:47:46;;;;;;;1.55;1.10;;;2.80;99.90;;;;;;4956302;28;20055;-70
2023/01/19 01:50:18;;;;;;;2.08;1.10;;;3.00;99.90;;;;;;5013204;28;20061;-68
2023/01/19 01:52:50;;;;;;;2.80;1.30;;;3.50;99.90;;;;;;5017587;28;20061;-69
2023/01/19 01:55:18;;;;;;;2.05;1.33;;;2.90;99.90;;;;;;5017457;28;20100;-69
2023/01/19 01:57:48;;;;;;;2.03;1.60;;;3.50;99.90;;;;;;5017332;28;20046;-69
2023/01/19 02:00:15;;;;;;;2.30;1.30;;;3.10;99.90;;;;;;5016378;28;20484;-69
2023/01/19 02:02:50;;;;;;;3.13;1.40;;;2.50;99.90;;;;;;5017702;28;20061;-69
2023/01/19 02:05:21;;;;;;;2.20;1.38;;;3.10;99.90;;;;;;5017129;28;20046;-70
2023/01/19 02:13:38;;;;;;;3.47;1.05;;;3.10;99.90;;;;;;5016126;28;20057;-69
2023/01/19 02:16:08;;;;;;;2.47;1.00;;;2.90;99.90;;;;;;5017113;28;20057;-69
2023/01/19 02:18:36;;;;;;;2.47;1.00;;;2.60;99.90;;;;;;5017010;28;20281;-69
2023/01/19 02:21:18;;;;;;;1.30;0.90;;;3.40;99.90;;;;;;5016572;28;20054;-69
2023/01/19 02:23:50;;;;;;;1.90;1.00;;;2.70;99.90;;;;;;5017663;28;20049;-69
2023/01/19 02:26:35;;;;;;;1.58;0.95;;;3.10;99.90;;;;;;5017314;28;20285;-69
2023/01/19 02:29:05;;;;;;;1.38;1.00;;;2.70;99.90;;;;;;5016905;28;20042;-69
2023/01/19 02:31:33;;;;;;;2.03;1.20;;;2.90;99.90;;;;;;5017004;28;20049;-69
2023/01/19 02:34:00;;;;;;;2.20;1.10;;;2.70;99.90;;;;;;5015657;28;20513;-69
2023/01/19 02:36:41;;;;;;;4.07;1.60;;;3.20;99.90;;;;;;5016615;28;20054;-69
2023/01/19 02:39:09;;;;;;;2.00;1.25;;;2.70;99.90;;;;;;5016687;28;20136;-69
2023/01/19 02:41:43;;;;;;;3.90;1.60;;;2.90;99.90;;;;;;5016569;28;20185;-69
2023/01/19 02:44:11;;;;;;;2.95;2.08;;;3.00;99.90;;;;;;5016214;28;20085;-69
2023/01/19 02:46:37;;;;;;;2.85;1.60;;;2.50;99.90;;;;;;5016519;28;20049;-69
2023/01/19 02:49:03;;;;;;;3.00;1.77;;;3.30;99.90;;;;;;5017000;28;20439;-70
2023/01/19 02:51:29;;;;;;;4.53;2.35;;;3.30;99.90;;;;;;5016416;28;20052;-70
2023/01/19 02:54:07;;;;;;;4.70;2.28;;;2.70;99.90;;;;;;5016318;28;20046;-69
2023/01/19 02:56:58;;;;;;;3.50;2.22;;;2.60;99.90;;;;;;5015616;28;20050;-69
2023/01/19 02:59:41;;;;;;;3.38;2.50;;;2.60;99.90;;;;;;5015563;28;20049;-70
2023/01/19 03:02:25;;;;;;;4.78;2.10;;;2.50;99.90;;;;;;5017029;28;20057;-69
2023/01/19 03:05:14;;;;;;;;;;;2.60;99.90;;;;;;4999189;28;20113;-69
2023/01/19 03:07:49;;;;;;;3.80;2.72;;;2.60;99.90;;;;;;5016641;28;19921;-69
2023/01/19 03:10:17;;;;;;;6.85;4.07;;;3.00;99.90;;;;;;5015985;28;20069;-70
2023/01/19 03:13:03;;;;;;;5.85;3.58;;;2.70;99.90;;;;;;5016844;28;20395;-69
2023/01/19 03:15:54;;;;;;;6.75;3.80;;;3.20;99.90;;;;;;5015099;28;20054;-70
2023/01/19 03:18:24;;;;;;;8.82;4.40;;;2.70;99.90;;;;;;5015972;28;20050;-70
2023/01/19 03:20:53;;;;;;;9.88;4.93;;;3.10;99.90;;;;;;5016358;28;20136;-69
2023/01/19 03:23:23;;;;;;;11.65;5.70;;;2.70;99.90;;;;;;5015644;28;20050;-69
2023/01/19 03:25:51;;;;;;;11.45;6.38;;;3.40;99.90;;;;;;5016295;28;20105;-69
2023/01/19 03:28:20;;;;;;;9.65;5.47;;;3.00;99.90;;;;;;5015657;28;20129;-69
2023/01/19 03:30:53;;;;;;;12.07;7.03;;;2.70;99.90;;;;;;5015607;28;20128;-69
2023/01/19 03:33:30;;;;;;;12.40;6.90;;;2.60;99.90;;;;;;5015170;28;20430;-69
2023/01/19 03:36:04;;;;;;;11.80;6.78;;;3.20;99.90;;;;;;5014523;28;20131;-69
2023/01/19 03:38:37;;;;;;;10.45;5.93;;;2.70;99.90;;;;;;5015553;28;20043;-69
2023/01/19 03:41:08;;;;;;;15.00;8.27;;;3.50;99.90;;;;;;5014525;28;20451;-69
2023/01/19 03:43:36;;;;;;;21.90;12.73;;;3.10;99.90;;;;;;5015350;28;20297;-69
2023/01/19 03:46:04;;;;;;;26.23;16.17;;;2.90;99.90;;;;;;5016171;28;20053;-69
2023/01/19 03:48:31;;;;;;;29.30;17.20;;;3.30;99.90;;;;;;5015060;28;20090;-69
2023/01/19 03:51:01;;;;;;;28.45;16.23;;;3.30;99.90;;;;;;5015226;28;20503;-69
2023/01/19 03:53:27;;;;;;;30.75;17.35;;;3.40;99.90;;;;;;5015709;28;20108;-69
2023/01/19 03:55:53;;;;;;;32.55;16.95;;;3.40;99.90;;;;;;5014452;28;20046;-69
2023/01/19 03:58:21;;;;;;;24.73;15.60;;;3.70;99.90;;;;;;5015100;28;20516;-69
2023/01/19 04:00:46;;;;;;;25.48;15.52;;;3.00;99.90;;;;;;5014086;28;20132;-69
2023/01/19 04:03:14;;;;;;;24.38;14.57;;;2.80;99.90;;;;;;5014873;28;20081;-69
2023/01/19 04:05:40;;;;;;;28.60;16.77;;;3.20;99.90;;;;;;5015501;28;20050;-69
2023/01/19 04:08:07;;;;;;;28.00;16.52;;;3.10;99.90;;;;;;5014897;28;20129;-69
2023/01/19 04:10:33;;;;;;;26.67;15.27;;;3.10;99.90;;;;;;5012521;28;20103;-69
2023/01/19 04:12:59;;;;;;;26.92;14.93;;;2.80;99.90;;;;;;5014860;28;20057;-69
2023/01/19 04:15:26;;;;;;;28.25;15.00;;;2.80;99.90;;;;;;5014769;28;20046;-69
2023/01/19 04:17:52;;;;;;;31.42;18.10;;;2.90;99.90;;;;;;5014703;28;20053;-69
2023/01/19 04:20:18;;;;;;;24.13;14.13;;;3.60;99.90;;;;;;5014745;28;20095;-69
2023/01/19 04:22:44;;;;;;;20.73;11.60;;;3.50;99.90;;;;;;5014727;28;20065;-69
2023/01/19 04:25:10;;;;;;;25.08;14.93;;;3.70;99.90;;;;;;5014886;28;20377;-69
2023/01/19 04:27:36;;;;;;;29.85;16.70;;;3.30;99.90;;;;;;5014518;28;20054;-69
2023/01/19 04:30:03;;;;;;;26.73;15.48;;;2.70;99.90;;;;;;5014471;28;20049;-69
2023/01/19 04:32:29;;;;;;;31.05;15.77;;;2.70;99.90;;;;;;5013327;28;20423;-68
2023/01/19 04:34:55;;;;;;;25.27;16.65;;;2.90;99.90;;;;;;5014632;28;20399;-69
2023/01/19 04:37:21;;;;;;;21.58;11.60;;;3.60;99.90;;;;;;5014435;28;20046;-69
2023/01/19 04:39:46;;;;;;;18.27;10.20;;;2.70;99.90;;;;;;5014662;28;20120;-69
2023/01/19 04:42:12;;;;;;;13.85;8.60;;;3.20;99.90;;;;;;5014324;28;20045;-69
2023/01/19 04:44:38;;;;;;;16.13;9.15;;;3.00;99.90;;;;;;5013628;28;20084;-69
2023/01/19 04:47:04;;;;;;;14.45;8.70;;;2.60;99.90;;;;;;5013067;28;20053;-69
2023/01/19 04:49:30;;;;;;;14.00;8.85;;;3.40;99.90;;;;;;5014265;28;20416;-69
2023/01/19 04:51:55;;;;;;;14.43;8.35;;;3.00;99.90;;;;;;5014258;28;20046;-69
2023/01/19 04:54:21;;;;;;;13.82;8.10;;;2.90;99.90;;;;;;5013971;28;20046;-69
2023/01/19 04:56:47;;;;;;;10.82;6.78;;;3.90;99.90;;;;;;5013158;28;20054;-69
2023/01/19 04:59:13;;;;;;;9.98;6.35;;;3.00;99.90;;;;;;5013124;28;20045;-69
2023/01/19 05:01:38;;;;;;;9.35;5.28;;;3.00;99.90;;;;;;5012808;28;20479;-69
2023/01/19 05:04:05;;;;;;;8.98;5.00;;;3.40;99.90;;;;;;5013840;28;20049;-69
2023/01/19 05:06:32;;;;;;;8.00;4.53;;;2.80;99.90;;;;;;5013037;28;20072;-69
2023/01/19 05:08:58;;;;;;;8.50;4.45;;;2.80;99.90;;;;;;5013949;28;20054;-69
2023/01/19 05:11:24;;;;;;;7.65;4.18;;;3.10;99.90;;;;;;5013729;28;20058;-69
2023/01/19 05:13:50;;;;;;;6.38;3.53;;;3.00;99.90;;;;;;5013929;28;20125;-69
2023/01/19 05:16:15;;;;;;;6.55;4.25;;;3.20;99.90;;;;;;4996533;28;20133;-69
2023/01/19 05:18:41;;;;;;;4.55;3.03;;;2.80;99.90;;;;;;5013868;28;20042;-69
2023/01/19 05:21:07;;;;;;;5.50;2.90;;;2.80;99.90;;;;;;5013505;28;20089;-69
2023/01/19 05:23:33;;;;;;;4.45;2.83;;;3.30;99.90;;;;;;5012524;28;20077;-69
2023/01/19 05:26:00;;;;;;;5.38;2.90;;;2.90;99.90;;;;;;5013413;28;20050;-70
2023/01/19 05:28:31;;;;;;;5.18;3.00;;;3.20;99.90;;;;;;5013710;28;20073;-69
2023/01/19 05:30:57;;;;;;;4.55;2.40;;;3.60;99.90;;;;;;5013648;28;20050;-69
2023/01/19 05:33:23;;;;;;;3.30;2.28;;;3.20;99.90;;;;;;5013615;28;20174;-69
2023/01/19 05:35:50;;;;;;;3.30;2.22;;;2.60;99.90;;;;;;5013943;28;20054;-69
2023/01/19 05:38:16;;;;;;;4.07;2.25;;;3.30;99.90;;;;;;5013627;28;20057;-69
2023/01/19 05:40:42;;;;;;;3.55;2.13;;;2.50;99.90;;;;;;5013640;28;20056;-69
2023/01/19 05:43:07;;;;;;;4.45;2.50;;;3.00;99.90;;;;;;5013542;28;20038;-69
2023/01/19 05:45:33;;;;;;;3.67;2.10;;;2.90;99.90;;;;;;5012256;28;20056;-69
2023/01/19 05:47:59;;;;;;;4.80;2.50;;;2.60;99.90;;;;;;5012594;28;20046;-69
2023/01/19 05:50:25;;;;;;;5.00;2.38;;;2.60;99.90;;;;;;5013516;28;20387;-69
2023/01/19 05:52:52;;;;;;;3.30;1.92;;;2.80;99.90;;;;;;5012551;28;20096;-69
2023/01/19 05:55:18;;;;;;;2.92;1.77;;;2.50;99.90;;;;;;5013477;28;20077;-69
2023/01/19 05:57:44;;;;;;;3.22;1.98;;;3.00;99.90;;;;;;5013485;28;20049;-69
2023/01/19 06:00:10;;;;;;;3.40;2.00;;;2.50;99.90;;;;;;5013072;28;20073;-69
2023/01/19 06:02:36;;;;;;;4.20;1.88;;;2.40;99.90;;;;;;5012208;28;20073;-69
2023/01/19 06:05:03;;;;;;;2.47;1.63;;;2.70;99.90;;;;;;5014064;28;20049;-69
2023/01/19 06:07:30;;;;;;;2.63;1.63;;;2.50;99.90;;;;;;5012253;28;20404;-69
2023/01/19 06:09:56;;;;;;;3.40;1.70;;;3.70;99.90;;;;;;5011744;28;20054;-69
2023/01/19 06:12:22;;;;;;;2.45;1.20;;;2.40;99.90;;;;;;5013275;28;20053;-69
2023/01/19 06:14:48;;;;;;;3.10;1.27;;;2.80;99.90;;;;;;5013319;28;20402;-69
2023/01/19 06:17:13;;;;;;;1.73;1.20;;;3.10;99.90;;;;;;5013364;28;20502;-69
2023/01/19 06:19:39;;;;;;;3.47;1.25;;;3.60;99.90;;;;;;5013278;28;20046;-69
2023/01/19 06:22:05;;;;;;;4.55;1.52;;;2.90;99.90;;;;;;4995800;28;20140;-69
2023/01/19 06:24:31;;;;;;;2.92;1.17;;;3.40;99.90;;;;;;5013193;28;20495;-69
2023/01/19 06:26:59;;;;;;;3.83;1.27;;;3.20;99.90;;;;;;5013183;28;20125;-69
2023/01/19 06:29:25;;;;;;;3.67;1.02;;;2.40;99.90;;;;;;5013172;28;20088;-69
2023/01/19 06:31:51;;;;;;;2.42;1.13;;;2.50;99.90;;;;;;5013137;28;20128;-69
2023/01/19 06:34:17;;;;;;;2.08;0.70;;;3.10;99.90;;;;;;5015393;28;20085;-69
2023/01/19 06:36:44;;;;;;;2.42;0.73;;;3.30;99.90;;;;;;5016922;28;20468;-68
2023/01/19 06:39:09;;;;;;;1.90;0.70;;;2.90;99.90;;;;;;5016449;28;20376;-69
2023/01/19 06:41:35;;;;;;;1.70;0.80;;;2.80;99.90;;;;;;5016432;28;20046;-69
2023/01/19 06:44:02;;;;;;;1.25;0.50;;;2.70;99.90;;;;;;4983162;28;20457;-69
2023/01/19 06:46:28;;;;;;;1.60;0.70;;;3.20;99.90;;;;;;5015804;28;20046;-68
2023/01/19 06:48:54;;;;;;;3.33;0.68;;;3.10;99.90;;;;;;5015485;28;20081;-69
2023/01/19 06:51:20;;;;;;;4.90;0.68;;;3.20;99.90;;;;;;5017193;28;20155;-69
2023/01/19 06:53:46;;;;;;;3.42;0.50;;;2.90;99.90;;;;;;5016676;28;20403;-68
2023/01/19 06:56:11;;;;;;;2.42;0.50;;;3.20;99.90;;;;;;5016600;28;20046;-69
2023/01/19 06:58:37;;;;;;;2.95;0.90;;;3.40;99.90;;;;;;5016346;28;20056;-69
2023/01/19 07:01:07;;;;;;;1.55;0.40;;;3.40;99.90;;;;;;5015476;28;20042;-69
2023/01/19 07:03:34;;;;;;;1.63;0.40;;;2.70;99.90;;;;;;5016530;28;20500;-69
2023/01/19 07:06:01;;;;;;;1.02;0.30;;;3.10;99.90;;;;;;5016118;28;20050;-69
2023/01/19 07:08:28;;;;;;;3.92;0.30;;;3.40;99.90;;;;;;5016083;28;20057;-69
2023/01/19 07:11:08;;;;;;;2.50;0.40;;;3.20;99.90;;;;;;4998264;28;20502;-69
2023/01/19 07:13:35;;;;;;;1.33;0.20;;;3.60;99.90;;;;;;5015937;28;20089;-69
2023/01/19 07:16:09;;;;;;;3.75;0.30;;;2.90;99.90;;;;;;5015936;28;20070;-69
2023/01/19 07:18:36;;;;;;;2.67;0.30;;;2.80;99.90;;;;;;5016179;28;20049;-69
2023/01/19 07:21:02;;;;;;;1.85;0.20;;;3.80;99.90;;;;;;5015673;28;20423;-69
2023/01/19 07:23:30;;;;;;;0.90;0.13;;;3.00;99.90;;;;;;5014764;28;20041;-69
2023/01/19 07:25:57;;;;;;;2.63;0.28;;;3.90;99.90;;;;;;5014312;28;20539;-69
2023/01/19 07:28:23;;;;;;;2.08;0.25;;;3.20;99.90;;;;;;5015733;28;20049;-69
2023/01/19 07:30:55;;;;;;;1.83;0.32;;;3.00;99.90;;;;;;5015698;28;20118;-69
2023/01/19 07:33:22;;;;;;;1.90;0.32;;;3.80;99.90;;;;;;5015595;28;20395;-69
2023/01/19 07:35:49;;;;;;;2.17;0.30;;;3.70;99.90;;;;;;5016132;28;20053;-69
2023/01/19 07:38:16;;;;;;;3.05;0.40;;;3.10;99.90;;;;;;5015585;28;20085;-70
2023/01/19 07:40:42;;;;;;;4.68;0.40;;;3.30;99.90;;;;;;5016079;28;20053;-69
2023/01/19 07:43:08;;;;;;;6.28;0.60;;;3.20;99.90;;;;;;5014753;28;20077;-69
2023/01/19 07:45:34;;;;;;;6.43;0.50;;;3.40;99.90;;;;;;5015241;28;20053;-69
2023/01/19 07:48:01;;;;;;;6.32;0.50;;;2.90;99.90;;;;;;5015350;28;20057;-69
2023/01/19 07:50:28;;;;;;;2.72;0.35;;;3.30;99.90;;;;;;5016165;28;20149;-69
2023/01/19 07:52:54;;;;;;;3.88;0.50;;;3.60;99.90;;;;;;5015437;28;20045;-70
2023/01/19 07:55:21;;;;;;;2.58;0.47;;;3.20;99.90;;;;;;4998134;28;20050;-70
2023/01/19 07:57:50;;;;;;;5.90;0.55;;;3.40;99.90;;;;;;5015307;28;20411;-69
2023/01/19 08:00:23;;;;;;;3.33;0.47;;;3.20;99.90;;;;;;5014574;28;20417;-69
2023/01/19 08:02:50;;;;;;;5.18;0.60;;;3.10;99.90;;;;;;5014600;28;20060;-69
2023/01/19 08:05:17;;;;;;;3.55;0.50;;;3.70;99.90;;;;;;5013919;28;20046;-69
2023/01/19 08:07:45;;;;;;;4.15;0.60;;;3.30;99.90;;;;;;5015093;28;20050;-69
2023/01/19 08:10:12;;;;;;;6.32;0.70;;;3.70;99.90;;;;;;5014701;28;20495;-69
2023/01/19 08:12:38;;;;;;;6.25;0.70;;;3.50;99.90;;;;;;5014842;28;20046;-69
2023/01/19 08:15:06;;;;;;;5.40;0.70;;;3.60;99.90;;;;;;5013846;28;20372;-70
2023/01/19 08:17:31;;;;;;;3.13;0.63;;;3.10;99.90;;;;;;5014033;28;20054;-69
2023/01/19 08:19:57;;;;;;;2.80;0.40;;;3.20;99.90;;;;;;5014641;28;20379;-72
2023/01/19 08:22:23;;;;;;;2.97;0.50;;;3.00;99.90;;;;;;5016596;28;20049;-71
2023/01/19 08:24:48;;;;;;;4.25;0.73;;;4.30;99.90;;;;;;5016279;28;20550;-72
2023/01/19 08:27:14;;;;;;;4.50;0.52;;;4.20;99.90;;;;;;5014829;28;20093;-72
2023/01/19 08:29:39;;;;;;;5.97;0.80;;;3.50;99.90;;;;;;5019054;28;20606;-73
2023/01/19 08:32:05;;;;;;;2.85;0.70;;;3.20;99.90;;;;;;5014730;28;20046;-74
2023/01/19 08:34:31;;;;;;;5.22;1.33;;;4.40;99.90;;;;;;5014399;28;20103;-75
2023/01/19 08:36:58;;;;;;;6.43;0.70;;;3.20;99.90;;;;;;5014205;28;20056;-74
2023/01/19 08:39:24;;;;;;;9.68;0.90;;;3.80;99.90;;;;;;5014599;28;20046;-77
2023/01/19 08:41:51;;;;;;;6.25;1.50;;;3.90;99.90;;;;;;5013617;28;20103;-75
2023/01/19 08:44:17;;;;;;;8.93;0.60;;;3.30;99.90;;;;;;5014493;28;20053;-73
2023/01/19 08:46:43;;;;;;;4.18;0.63;;;3.10;99.90;;;;;;5013385;28;20053;-73
2023/01/19 08:49:09;;;;;;;7.35;0.98;;;3.80;99.90;;;;;;5014933;28;20046;-74
2023/01/19 08:51:35;;;;;;;6.55;0.88;;;4.40;99.90;;;;;;5014445;28;20108;-74
2023/01/19 08:54:01;;;;;;;3.78;0.50;;;4.30;99.90;;;;;;5013114;28;20046;-67
2023/01/19 08:56:26;;;;;;;7.53;0.80;;;3.60;99.90;;;;;;5013850;28;20160;-68
2023/01/19 08:58:52;;;;;;;5.07;0.70;;;3.60;99.90;;;;;;5014222;28;20388;-70
2023/01/19 09:01:19;;;;;;;5.90;0.80;;;4.10;99.90;;;;;;5013269;28;20056;-68
2023/01/19 09:03:45;;;;;;;4.05;0.65;;;3.70;99.90;;;;;;5014071;28;20043;-69
2023/01/19 09:06:15;;;;;;;11.25;1.00;;;3.70;99.90;;;;;;5014116;28;20045;-72
2023/01/19 09:08:42;;;;;;;4.03;0.50;;;3.50;99.90;;;;;;5014107;28;20132;-67
2023/01/19 09:11:13;;;;;;;4.75;0.98;;;3.30;99.90;;;;;;5014275;28;20065;-72
2023/01/19 09:13:40;;;;;;;3.50;0.60;;;3.20;99.90;;;;;;5014101;28;20049;-72
2023/01/19 09:16:07;;;;;;;4.35;0.57;;;3.60;99.90;;;;;;5014548;28;20050;-71
2023/01/19 09:18:33;;;;;;;4.68;0.60;;;3.40;99.90;;;;;;5012751;28;20053;-70
2023/01/19 09:20:59;;;;;;;4.32;0.60;;;4.40;99.90;;;;;;5013962;28;20041;-71
2023/01/19 09:23:25;;;;;;;4.03;0.50;;;3.40;99.90;;;;;;5014668;28;20140;-70
2023/01/19 09:25:56;;;;;;;3.25;0.50;;;3.40;99.90;;;;;;5013937;28;20535;-70
2023/01/19 09:28:22;;;;;;;5.20;0.50;;;3.60;99.90;;;;;;5014424;28;20129;-70
2023/01/19 09:30:48;;;;;;;2.13;0.35;;;3.60;99.90;;;;;;5012620;28;20104;-70
2023/01/19 09:33:15;;;;;;;8.20;0.60;;;4.00;99.90;;;;;;5014102;28;20112;-71
2023/01/19 09:35:43;;;;;;;5.20;1.50;;;3.70;99.90;;;;;;5012848;28;20050;-70
2023/01/19 09:38:09;;;;;;;7.13;0.93;;;3.90;99.90;;;;;;5013808;28;20050;-70
2023/01/19 09:41:03;;;;;;;4.97;0.50;;;3.90;99.90;;;;;;5014358;28;20097;-70
2023/01/19 09:43:46;;;;;;;12.50;1.17;;;4.10;99.90;;;;;;5009962;28;20129;-71
2023/01/19 09:46:28;;;;;;;3.67;0.57;;;3.60;99.90;;;;;;5014151;28;20088;-71
2023/01/19 09:48:57;;;;;;;3.63;0.70;;;3.90;99.90;;;;;;5014339;28;20089;-71
2023/01/19 09:51:28;;;;;;;3.88;0.65;;;3.90;99.90;;;;;;5014254;28;20050;-71
2023/01/19 09:53:55;;;;;;;3.08;0.55;;;4.30;99.90;;;;;;5012759;28;20049;-71
2023/01/19 09:56:22;;;;;;;6.00;1.23;;;4.10;99.90;;;;;;5013736;28;20061;-72
2023/01/19 09:58:49;;;;;;;5.55;0.90;;;3.80;99.90;;;;;;5013591;28;20042;-72
2023/01/19 10:01:55;;;;;;;11.48;0.82;;;3.80;99.90;;;;;;5013810;28;20136;-73
2023/01/19 10:04:37;;;;;;;6.07;0.88;;;4.00;99.90;;;;;;5012312;28;20092;-72
2023/01/19 10:07:22;;;;;;;5.65;0.70;;;3.90;99.90;;;;;;5013642;28;20153;-72
2023/01/19 10:10:11;;;;;;;4.85;1.00;;;3.90;99.90;;;;;;5016606;28;20053;-74
2023/01/19 10:13:15;;;;;;;5.10;0.70;;;4.00;99.90;;;;;;5017177;28;20123;-74
2023/01/19 10:15:56;;;;;;;6.25;0.52;;;3.90;99.90;;;;;;5017218;28;20151;-72
2023/01/19 10:18:29;;;;;;;4.00;0.60;;;3.90;99.90;;;;;;5017314;28;20050;-73
2023/01/19 10:21:01;;;;;;;;;;;4.20;99.90;;;;;;5017624;28;20049;-75
2023/01/19 10:23:51;;;;;;;8.55;0.77;;;5.00;99.90;;;;;;5017160;28;19922;-73
2023/01/19 10:26:19;;;;;;;5.18;0.73;;;3.80;99.90;;;;;;5017574;28;20056;-73
2023/01/19 10:28:48;;;;;;;3.40;0.90;;;4.00;99.90;;;;;;5016093;28;20129;-73
2023/01/19 10:31:19;;;;;;;8.85;0.70;;;4.30;99.90;;;;;;5016866;28;20061;-74
2023/01/19 10:33:45;;;;;;;7.05;0.70;;;3.90;99.90;;;;;;5017313;28;20038;-72
2023/01/19 10:36:20;;;;;;;3.38;0.70;;;5.20;99.90;;;;;;5016113;28;20054;-75
2023/01/19 10:38:47;;;;;;;3.35;0.40;;;4.40;99.90;;;;;;5015791;28;20054;-72
2023/01/19 10:41:27;;;;;;;3.72;0.60;;;3.80;99.90;;;;;;5016992;28;20087;-74
2023/01/19 10:44:01;;;;;;;5.45;0.90;;;4.20;99.90;;;;;;5016705;28;20041;-76
2023/01/19 10:46:43;;;;;;;5.85;0.52;;;4.00;99.90;;;;;;5016697;28;20056;-72
2023/01/19 10:49:26;;;;;;;5.90;0.60;;;4.00;99.90;;;;;;5016455;28;20050;-72
2023/01/19 10:51:52;;;;;;;4.07;0.60;;;4.50;99.90;;;;;;5017632;28;20096;-72
2023/01/19 10:54:19;;;;;;;4.25;0.60;;;4.50;99.90;;;;;;5016533;28;20084;-72
2023/01/19 10:56:56;;;;;;;2.17;0.43;;;4.80;99.90;;;;;;4999404;28;20537;-72
2023/01/19 10:59:36;;;;;;;5.38;0.75;;;4.30;99.90;;;;;;5015280;28;20042;-74
2023/01/19 11:02:25;;;;;;;17.88;7.13;;;4.40;99.90;;;;;;5016247;28;20053;-73
2023/01/19 11:05:18;;;;;;;4.30;0.77;;;5.00;99.90;;;;;;5016446;28;20052;-72
2023/01/19 11:07:43;;;;;;;6.32;0.70;;;4.40;99.90;;;;;;5015821;28;20053;-74
2023/01/19 11:10:16;;;;;;;7.40;0.90;;;4.50;99.90;;;;;;5014878;28;20049;-74
2023/01/19 11:12:44;;;;;;;7.80;0.60;;;4.60;99.90;;;;;;5016180;28;20053;-73
2023/01/19 11:15:34;;;;;;;4.22;0.60;;;4.70;99.90;;;;;;5016088;28;20046;-74
2023/01/19 11:18:04;;;;;;;3.92;1.00;;;4.80;99.90;;;;;;5016959;28;20430;-75
2023/01/19 11:20:49;;;;;;;6.35;1.00;;;4.80;99.90;;;;;;4998378;28;20054;-73
2023/01/19 11:23:30;;;;;;;3.85;0.80;;;5.10;99.90;;;;;;5015850;28;20054;-73
2023/01/19 11:25:59;;;;;;;5.88;1.15;;;4.80;99.90;;;;;;5016787;28;20041;-73
2023/01/19 11:28:35;;;;;;;6.68;0.82;;;4.90;99.90;;;;;;5015962;28;20050;-73
2023/01/19 11:31:02;;;;;;;4.13;0.65;;;4.90;99.90;;;;;;5018896;28;20100;-73
2023/01/19 11:33:44;;;;;;;4.22;0.47;;;4.90;99.90;;;;;;5019984;28;20095;-70
2023/01/19 11:36:21;;;;;;;5.05;1.17;;;4.90;99.90;;;;;;5015821;28;20099;-71
2023/01/19 11:38:59;;;;;;;5.78;1.15;;;4.90;99.90;;;;;;5014622;28;20056;-71
2023/01/19 11:41:48;;;;;;;3.58;1.00;;;4.80;99.90;;;;;;5014750;28;20048;-71
2023/01/19 11:44:21;;;;;;;5.93;0.68;;;5.20;99.90;;;;;;5015109;28;20076;-70
2023/01/19 11:46:59;;;;;;;5.30;0.50;;;5.40;99.90;;;;;;5016107;28;20054;-71
2023/01/19 11:49:28;;;;;;;3.70;0.50;;;5.00;99.90;;;;;;5015563;28;20092;-70
2023/01/19 11:52:03;;;;;;;4.93;1.00;;;5.00;99.90;;;;;;5015514;28;20050;-71
2023/01/19 11:54:36;;;;;;;4.45;0.70;;;5.20;99.90;;;;;;5014586;28;20053;-71
2023/01/19 11:57:10;;;;;;;3.70;0.60;;;5.10;99.90;;;;;;5015473;28;20046;-71
2023/01/19 11:59:36;;;;;;;3.13;0.93;;;5.40;99.90;;;;;;5015927;28;20049;-70
2023/01/19 12:02:12;;;;;;;5.72;0.80;;;5.40;99.90;;;;;;5014243;28;20502;-71
2023/01/19 12:04:41;;;;;;;6.10;0.70;;;5.10;99.90;;;;;;5013994;28;20038;-71
2023/01/19 12:07:11;;;;;;;9.40;1.02;;;5.20;99.90;;;;;;5014499;28;20049;-74
2023/01/19 12:09:45;;;;;;;5.45;0.60;;;5.20;99.90;;;;;;5014744;28;20058;-72
2023/01/19 12:12:23;;;;;;;4.20;0.50;;;5.20;99.90;;;;;;5015150;28;20057;-71
2023/01/19 12:15:21;;;;;;;4.60;0.73;;;5.50;99.90;;;;;;4998003;28;20054;-73
2023/01/19 12:17:50;;;;;;;4.55;0.60;;;5.30;99.90;;;;;;5015482;28;20050;-74
2023/01/19 12:20:16;;;;;;;6.40;0.68;;;5.50;99.90;;;;;;4997616;28;20046;-71
2023/01/19 12:22:49;;;;;;;4.40;0.70;;;5.50;99.90;;;;;;5014917;28;20049;-72
2023/01/19 12:25:23;;;;;;;6.03;0.85;;;5.30;99.90;;;;;;5015289;28;20045;-74
2023/01/19 12:27:50;;;;;;;2.55;0.50;;;5.60;99.90;;;;;;5014738;28;20570;-73
2023/01/19 12:30:23;;;;;;;4.20;0.80;;;5.60;99.90;;;;;;5012864;28;20050;-74
2023/01/19 12:32:52;;;;;;;7.78;1.00;;;5.70;99.90;;;;;;5014322;28;20084;-73
2023/01/19 12:35:59;;;;;;;4.88;0.50;;;5.70;99.90;;;;;;5014516;28;20077;-73
2023/01/19 12:38:43;;;;;;;5.35;0.50;;;5.40;99.90;;;;;;5015422;28;20050;-78
2023/01/19 12:41:34;;;;;;;5.72;0.60;;;5.50;99.90;;;;;;5014904;28;20042;-73
2023/01/19 12:44:14;;;;;;;1.77;0.20;;;5.50;99.90;;;;;;5014299;28;20060;-76
2023/01/19 12:46:48;;;;;;;4.15;0.50;;;5.70;99.90;;;;;;5015277;28;20436;-75
2023/01/19 12:49:26;;;;;;;4.28;0.45;;;5.60;99.90;;;;;;5013775;28;20139;-74
2023/01/19 12:52:11;;;;;;;1.30;0.30;;;5.50;99.90;;;;;;5014358;28;20132;-76
2023/01/19 12:54:42;;;;;;;6.25;0.50;;;4.90;99.90;;;;;;5013359;28;20051;-74
2023/01/19 12:57:26;;;;;;;1.50;0.40;;;4.90;99.90;;;;;;5014106;28;20053;-73
2023/01/19 13:00:01;;;;;;;4.40;0.43;;;4.60;99.90;;;;;;5014612;28;20049;-74
2023/01/19 13:02:27;;;;;;;4.47;0.60;;;4.90;99.90;;;;;;5014197;28;20048;-75
2023/01/19 13:05:16;;;;;;;5.35;0.40;;;4.60;99.90;;;;;;5013948;28;20046;-75
2023/01/19 13:08:00;;;;;;;6.22;0.60;;;4.60;99.90;;;;;;5014609;28;20081;-74
2023/01/19 13:10:54;;;;;;;3.78;0.40;;;4.60;99.90;;;;;;5014070;28;20447;-72
2023/01/19 13:13:22;;;;;;;1.38;0.38;;;4.50;99.90;;;;;;5012909;28;20052;-74
2023/01/19 13:15:48;;;;;;;2.45;0.50;;;4.50;99.90;;;;;;5014635;28;20140;-76
2023/01/19 13:18:27;;;;;;;5.95;0.60;;;4.50;99.90;;;;;;5012864;28;20042;-74